createdAt,value
2019-01-25T00:00:57.164Z,51.52
2019-01-25T00:02:01.180Z,51.51
2019-01-25T00:03:10.321Z,51.47
2019-01-25T00:04:12.962Z,51.38
2019-01-25T00:05:17.223Z,51.41
2019-01-25T00:06:21.261Z,51.53
2019-01-25T00:07:25.565Z,51.61
2019-01-25T00:08:29.582Z,51.72
2019-01-25T00:09:33.595Z,51.82
2019-01-25T00:10:37.691Z,51.80
2019-01-25T00:11:42.092Z,51.78
2019-01-25T00:12:46.115Z,51.85
2019-01-25T00:13:50.126Z,51.88
2019-01-25T00:14:54.179Z,51.96
2019-01-25T00:15:58.201Z,51.99
2019-01-25T00:17:02.248Z,52.01
2019-01-25T00:18:06.797Z,52.05
2019-01-25T00:19:10.748Z,52.19
2019-01-25T00:20:14.881Z,52.24
2019-01-25T00:21:19.216Z,52.30
2019-01-25T00:22:23.162Z,52.34
2019-01-25T00:23:27.184Z,52.36
2019-01-25T00:24:31.525Z,52.39
2019-01-25T00:25:35.544Z,52.36
2019-01-25T00:26:39.833Z,52.37
2019-01-25T00:27:43.858Z,52.37
2019-01-25T00:28:47.829Z,52.41
2019-01-25T00:29:51.950Z,52.40
2019-01-25T00:30:55.968Z,52.40
2019-01-25T00:32:00.000Z,52.35
2019-01-25T00:33:04.358Z,52.21
2019-01-25T00:34:08.237Z,52.22
2019-01-25T00:35:12.454Z,52.17
2019-01-25T00:36:16.490Z,52.26
2019-01-25T00:37:20.566Z,52.32
2019-01-25T00:38:24.681Z,52.40
2019-01-25T00:39:28.686Z,52.41
2019-01-25T00:40:32.786Z,52.42
2019-01-25T00:41:36.801Z,52.49
2019-01-25T00:42:40.926Z,52.64
2019-01-25T00:43:44.869Z,52.74
2019-01-25T00:44:48.863Z,52.72
2019-01-25T00:45:52.882Z,52.74
2019-01-25T00:46:56.895Z,52.79
2019-01-25T00:48:00.918Z,52.90
2019-01-25T00:49:05.748Z,53.04
2019-01-25T00:50:15.844Z,53.08
2019-01-25T00:51:19.788Z,53.18
2019-01-25T00:52:24.154Z,53.26
2019-01-25T00:53:28.406Z,53.27
2019-01-25T00:54:32.655Z,53.31
2019-01-25T00:55:36.736Z,53.31
2019-01-25T00:56:40.754Z,53.14
2019-01-25T00:57:44.814Z,53.09
2019-01-25T00:58:49.049Z,53.04
2019-01-25T00:59:53.064Z,52.97
2019-01-25T01:00:57.066Z,53.03
2019-01-25T01:02:01.069Z,53.08
2019-01-25T01:03:07.213Z,53.15
2019-01-25T01:04:11.221Z,53.16
2019-01-25T01:05:15.581Z,53.10
2019-01-25T01:06:19.836Z,53.04
2019-01-25T01:07:23.847Z,52.92
2019-01-25T01:08:27.874Z,52.88
2019-01-25T01:09:31.888Z,52.92
2019-01-25T01:10:35.891Z,52.90
2019-01-25T01:11:39.890Z,52.85
2019-01-25T01:12:43.899Z,52.84
2019-01-25T01:13:47.848Z,52.81
2019-01-25T01:14:51.855Z,52.84
2019-01-25T01:15:55.871Z,52.89
2019-01-25T01:16:59.804Z,52.85
2019-01-25T01:18:03.918Z,52.82
2019-01-25T01:19:08.046Z,52.82
2019-01-25T01:20:13.988Z,52.74
2019-01-25T01:21:18.237Z,52.67
2019-01-25T01:22:22.337Z,52.61
2019-01-25T01:23:26.355Z,52.67
2019-01-25T01:24:30.385Z,52.65
2019-01-25T01:25:34.609Z,52.55
2019-01-25T01:26:38.624Z,52.48
2019-01-25T01:27:42.761Z,52.47
2019-01-25T01:28:46.717Z,52.51
2019-01-25T01:29:50.777Z,52.40
2019-01-25T01:30:55.161Z,52.26
2019-01-25T01:31:59.166Z,52.24
2019-01-25T01:33:03.170Z,52.27
2019-01-25T01:34:07.182Z,52.32
2019-01-25T01:35:11.191Z,52.34
2019-01-25T01:36:15.191Z,52.33
2019-01-25T01:37:19.206Z,52.27
2019-01-25T01:38:23.485Z,52.22
2019-01-25T01:39:27.510Z,52.10
2019-01-25T01:40:31.780Z,52.06
2019-01-25T01:41:35.790Z,52.08
2019-01-25T01:42:39.801Z,51.95
2019-01-25T01:43:43.900Z,51.90
2019-01-25T01:44:47.951Z,51.59
2019-01-25T01:45:51.998Z,51.43
2019-01-25T01:46:56.022Z,51.50
2019-01-25T01:48:00.330Z,51.59
2019-01-25T01:49:04.627Z,51.57
2019-01-25T01:50:10.580Z,51.57
2019-01-25T01:51:14.950Z,51.63
2019-01-25T01:52:19.270Z,51.66
2019-01-25T01:53:23.285Z,51.72
2019-01-25T01:54:27.677Z,51.91
2019-01-25T01:55:31.695Z,51.86
2019-01-25T01:56:35.687Z,51.72
2019-01-25T01:57:39.771Z,51.51
2019-01-25T01:58:43.783Z,51.48
2019-01-25T01:59:47.894Z,51.50
2019-01-25T02:00:51.911Z,51.47
2019-01-25T02:01:55.906Z,51.46
2019-01-25T02:03:00.111Z,51.51
2019-01-25T02:04:04.592Z,51.48
2019-01-25T02:05:09.208Z,51.38
2019-01-25T02:06:13.293Z,51.33
2019-01-25T02:07:17.345Z,51.34
2019-01-25T02:08:21.365Z,51.35
2019-01-25T02:09:25.390Z,51.40
2019-01-25T02:10:29.882Z,51.38
2019-01-25T02:11:33.925Z,51.32
2019-01-25T02:12:38.266Z,51.35
2019-01-25T02:13:42.214Z,51.36
2019-01-25T02:14:46.232Z,51.33
2019-01-25T02:15:50.258Z,51.26
2019-01-25T02:16:54.270Z,51.21
2019-01-25T02:17:58.278Z,51.18
2019-01-25T02:19:02.337Z,51.17
2019-01-25T02:20:07.809Z,51.17
2019-01-25T02:21:12.835Z,51.16
2019-01-25T02:22:16.853Z,51.09
2019-01-25T02:23:20.869Z,51.07
2019-01-25T02:24:24.816Z,51.20
2019-01-25T02:25:28.837Z,51.29
2019-01-25T02:26:32.902Z,51.42
2019-01-25T02:27:36.934Z,51.44
2019-01-25T02:28:41.287Z,51.42
2019-01-25T02:29:45.242Z,51.27
2019-01-25T02:30:49.277Z,51.28
2019-01-25T02:31:53.536Z,51.25
2019-01-25T02:32:57.624Z,51.30
2019-01-25T02:34:01.643Z,51.42
2019-01-25T02:35:06.177Z,51.45
2019-01-25T02:36:10.571Z,51.32
2019-01-25T02:37:14.595Z,51.28
2019-01-25T02:38:18.616Z,51.37
2019-01-25T02:39:22.553Z,51.36
2019-01-25T02:40:26.803Z,51.26
2019-01-25T02:41:30.895Z,50.95
2019-01-25T02:42:34.909Z,50.87
2019-01-25T02:43:38.922Z,50.81
2019-01-25T02:44:42.903Z,50.70
2019-01-25T02:45:46.903Z,50.55
2019-01-25T02:46:50.911Z,50.50
2019-01-25T02:47:55.160Z,50.54
2019-01-25T02:48:59.055Z,50.63
2019-01-25T02:50:03.071Z,50.68
2019-01-25T02:51:07.305Z,50.69
2019-01-25T02:52:11.335Z,50.74
2019-01-25T02:53:15.354Z,50.76
2019-01-25T02:54:19.942Z,50.79
2019-01-25T02:55:24.005Z,50.87
2019-01-25T02:56:28.038Z,50.93
2019-01-25T02:57:32.060Z,50.91
2019-01-25T02:58:36.104Z,50.89
2019-01-25T02:59:40.044Z,50.86
2019-01-25T03:00:44.104Z,50.79
2019-01-25T03:01:48.432Z,50.73
2019-01-25T03:02:53.033Z,50.68
2019-01-25T03:03:57.073Z,50.63
2019-01-25T03:05:01.077Z,50.62
2019-01-25T03:06:05.093Z,50.54
2019-01-25T03:07:09.107Z,50.50
2019-01-25T03:08:13.038Z,50.30
2019-01-25T03:09:17.042Z,50.14
2019-01-25T03:10:28.242Z,49.96
2019-01-25T03:11:27.133Z,49.81
2019-01-25T03:12:31.403Z,49.69
2019-01-25T03:13:35.411Z,49.62
2019-01-25T03:14:39.420Z,49.65
2019-01-25T03:15:43.425Z,49.65
2019-01-25T03:16:47.428Z,49.67
2019-01-25T03:17:51.451Z,49.70
2019-01-25T03:18:55.560Z,49.66
2019-01-25T03:19:59.493Z,49.58
2019-01-25T03:21:05.022Z,49.43
2019-01-25T03:22:09.074Z,49.29
2019-01-25T03:23:13.102Z,49.31
2019-01-25T03:24:17.110Z,49.42
2019-01-25T03:25:23.443Z,49.50
2019-01-25T03:26:27.441Z,49.55
2019-01-25T03:27:31.478Z,49.63
2019-01-25T03:28:35.495Z,49.74
2019-01-25T03:29:39.737Z,49.84
2019-01-25T03:30:44.040Z,49.82
2019-01-25T03:31:48.059Z,49.79
2019-01-25T03:32:52.083Z,49.81
2019-01-25T03:33:56.339Z,49.89
2019-01-25T03:35:00.437Z,49.99
2019-01-25T03:36:04.392Z,50.07
2019-01-25T03:37:08.458Z,50.13
2019-01-25T03:38:12.453Z,50.07
2019-01-25T03:39:16.401Z,50.16
2019-01-25T03:40:23.067Z,50.33
2019-01-25T03:41:27.088Z,50.52
2019-01-25T03:42:30.961Z,50.66
2019-01-25T03:43:34.921Z,50.81
2019-01-25T03:44:38.932Z,50.92
2019-01-25T03:45:43.320Z,51.02
2019-01-25T03:46:47.280Z,51.10
2019-01-25T03:47:51.304Z,51.15
2019-01-25T03:48:55.348Z,51.23
2019-01-25T03:49:59.958Z,51.28
2019-01-25T03:51:03.927Z,51.41
2019-01-25T03:52:08.064Z,51.40
2019-01-25T03:53:12.028Z,51.40
2019-01-25T03:54:16.054Z,51.35
2019-01-25T03:55:20.073Z,51.40
2019-01-25T03:56:24.084Z,51.47
2019-01-25T03:57:28.100Z,51.59
2019-01-25T03:58:32.502Z,51.68
2019-01-25T03:59:36.870Z,51.89
2019-01-25T04:00:40.889Z,52.08
2019-01-25T04:01:45.181Z,52.10
2019-01-25T04:02:49.464Z,52.06
2019-01-25T04:03:53.493Z,52.00
2019-01-25T04:04:57.506Z,51.85
2019-01-25T04:06:01.562Z,51.83
2019-01-25T04:07:05.962Z,51.88
2019-01-25T04:08:10.228Z,51.93
2019-01-25T04:09:14.516Z,51.95
2019-01-25T04:10:20.717Z,51.88
2019-01-25T04:11:24.767Z,51.81
2019-01-25T04:12:28.846Z,51.79
2019-01-25T04:13:33.184Z,51.77
2019-01-25T04:14:37.204Z,51.78
2019-01-25T04:15:41.223Z,51.83
2019-01-25T04:16:45.351Z,51.92
2019-01-25T04:17:49.458Z,51.99
2019-01-25T04:18:53.500Z,52.05
2019-01-25T04:19:57.520Z,52.09
2019-01-25T04:21:01.573Z,52.12
2019-01-25T04:22:06.097Z,52.11
2019-01-25T04:23:10.110Z,52.12
2019-01-25T04:24:14.146Z,52.13
2019-01-25T04:25:20.179Z,52.11
2019-01-25T04:26:24.193Z,52.04
2019-01-25T04:27:28.219Z,52.03
2019-01-25T04:28:32.245Z,52.03
2019-01-25T04:29:36.205Z,51.94
2019-01-25T04:30:40.218Z,51.84
2019-01-25T04:31:44.171Z,51.78
2019-01-25T04:32:48.352Z,51.71
2019-01-25T04:33:52.580Z,51.75
2019-01-25T04:34:56.530Z,51.66
2019-01-25T04:36:00.556Z,51.57
2019-01-25T04:37:04.891Z,51.65
2019-01-25T04:38:08.917Z,51.75
2019-01-25T04:39:12.989Z,51.73
2019-01-25T04:40:17.225Z,51.66
2019-01-25T04:41:21.187Z,51.50
2019-01-25T04:42:25.198Z,51.44
2019-01-25T04:43:29.196Z,51.36
2019-01-25T04:44:33.214Z,51.33
2019-01-25T04:45:37.384Z,51.37
2019-01-25T04:46:41.717Z,51.27
2019-01-25T04:47:45.836Z,51.18
2019-01-25T04:48:49.839Z,50.94
2019-01-25T04:49:53.846Z,50.61
2019-01-25T04:50:57.786Z,50.45
2019-01-25T04:52:01.693Z,50.39
2019-01-25T04:53:05.963Z,50.33
2019-01-25T04:54:09.970Z,50.34
2019-01-25T04:55:25.379Z,50.35
2019-01-25T04:56:32.235Z,50.35
2019-01-25T04:57:36.173Z,50.28
2019-01-25T04:58:40.420Z,50.17
2019-01-25T04:59:44.428Z,50.16
2019-01-25T05:00:48.498Z,50.21
2019-01-25T05:01:52.507Z,50.39
2019-01-25T05:02:58.436Z,50.73
2019-01-25T05:04:02.551Z,51.00
2019-01-25T05:05:07.474Z,51.22
2019-01-25T05:06:14.655Z,51.35
2019-01-25T05:07:18.654Z,51.44
2019-01-25T05:08:23.122Z,51.54
2019-01-25T05:09:27.128Z,51.61
2019-01-25T05:10:31.183Z,51.62
2019-01-25T05:11:35.187Z,51.54
2019-01-25T05:12:39.452Z,51.48
2019-01-25T05:13:43.495Z,51.44
2019-01-25T05:14:47.571Z,51.42
2019-01-25T05:15:51.597Z,51.35
2019-01-25T05:16:55.919Z,51.29
2019-01-25T05:17:59.944Z,51.34
2019-01-25T05:19:04.377Z,51.34
2019-01-25T05:20:08.843Z,51.33
2019-01-25T05:21:21.167Z,51.40
2019-01-25T05:22:25.495Z,51.44
2019-01-25T05:23:29.577Z,51.47
2019-01-25T05:24:33.806Z,51.43
2019-01-25T05:25:37.825Z,51.41
2019-01-25T05:26:41.944Z,51.46
2019-01-25T05:27:45.905Z,51.45
2019-01-25T05:28:50.004Z,51.47
2019-01-25T05:29:55.816Z,51.53
2019-01-25T05:31:05.316Z,51.64
2019-01-25T05:32:09.327Z,51.64
2019-01-25T05:33:13.270Z,51.63
2019-01-25T05:34:17.135Z,51.69
2019-01-25T05:35:21.437Z,51.75
2019-01-25T05:36:25.464Z,51.69
2019-01-25T05:37:29.490Z,51.56
2019-01-25T05:38:33.521Z,51.60
2019-01-25T05:39:37.464Z,51.71
2019-01-25T05:40:41.491Z,51.86
2019-01-25T05:41:50.140Z,51.92
2019-01-25T05:42:54.716Z,51.94
2019-01-25T05:43:59.024Z,51.96
2019-01-25T05:45:09.705Z,52.02
2019-01-25T05:46:13.665Z,52.04
2019-01-25T05:47:17.678Z,51.83
2019-01-25T05:48:29.056Z,51.71
2019-01-25T05:49:33.061Z,51.52
2019-01-25T05:50:37.134Z,51.36
2019-01-25T05:51:41.169Z,51.28
2019-01-25T05:52:45.288Z,51.29
2019-01-25T05:53:53.281Z,51.22
2019-01-25T05:54:57.309Z,51.21
2019-01-25T05:56:01.276Z,51.26
2019-01-25T05:57:05.673Z,51.25
2019-01-25T05:58:10.898Z,51.25
2019-01-25T05:59:16.456Z,51.26
2019-01-25T06:00:26.095Z,51.25
2019-01-25T06:01:30.439Z,51.28
2019-01-25T06:02:34.789Z,51.33
2019-01-25T06:03:39.059Z,51.34
2019-01-25T06:04:43.403Z,51.32
2019-01-25T06:05:47.712Z,51.26
2019-01-25T06:06:52.021Z,51.13
2019-01-25T06:07:55.959Z,51.03
2019-01-25T06:08:59.973Z,51.00
2019-01-25T06:10:04.525Z,50.93
2019-01-25T06:11:12.148Z,50.91
2019-01-25T06:12:16.343Z,50.88
2019-01-25T06:13:20.289Z,50.93
2019-01-25T06:14:24.304Z,51.02
2019-01-25T06:15:30.624Z,51.02
2019-01-25T06:16:35.196Z,50.79
2019-01-25T06:17:39.408Z,50.50
2019-01-25T06:18:43.711Z,50.48
2019-01-25T06:19:47.782Z,50.68
2019-01-25T06:20:55.626Z,50.74
2019-01-25T06:21:59.665Z,50.63
2019-01-25T06:23:03.684Z,50.52
2019-01-25T06:24:07.700Z,50.54
2019-01-25T06:25:12.076Z,50.58
2019-01-25T06:26:16.092Z,50.71
2019-01-25T06:27:20.469Z,50.71
2019-01-25T06:28:24.614Z,50.67
2019-01-25T06:29:33.505Z,50.55
2019-01-25T06:30:37.750Z,50.48
2019-01-25T06:31:41.768Z,50.55
2019-01-25T06:32:46.022Z,50.60
2019-01-25T06:33:50.041Z,51.59
2019-01-25T06:34:54.040Z,52.68
2019-01-25T06:35:58.050Z,53.29
2019-01-25T06:37:02.294Z,53.97
2019-01-25T06:38:06.312Z,54.70
2019-01-25T06:39:10.628Z,54.71
2019-01-25T06:40:14.880Z,53.93
2019-01-25T06:41:19.038Z,53.26
2019-01-25T06:42:23.049Z,52.78
2019-01-25T06:43:27.064Z,52.35
2019-01-25T06:44:30.994Z,52.03
2019-01-25T06:45:35.259Z,51.63
2019-01-25T06:46:39.192Z,51.29
2019-01-25T06:47:43.297Z,50.97
2019-01-25T06:48:47.394Z,50.77
2019-01-25T06:49:51.715Z,50.73
2019-01-25T06:50:55.735Z,50.73
2019-01-25T06:52:00.026Z,50.77
2019-01-25T06:53:06.088Z,50.82
2019-01-25T06:54:10.380Z,50.88
2019-01-25T06:55:14.947Z,50.95
2019-01-25T06:56:18.989Z,51.01
2019-01-25T06:57:42.087Z,51.02
2019-01-25T06:58:52.343Z,51.02
2019-01-25T06:59:56.297Z,50.97
2019-01-25T07:01:22.328Z,50.94
2019-01-25T07:02:36.455Z,50.94
2019-01-25T07:03:40.484Z,50.98
2019-01-25T07:04:44.500Z,51.01
2019-01-25T07:05:48.439Z,51.03
2019-01-25T07:06:52.901Z,51.11
2019-01-25T07:07:56.840Z,51.16
2019-01-25T07:09:00.785Z,51.21
2019-01-25T07:10:07.457Z,51.28
2019-01-25T07:11:11.471Z,51.36
2019-01-25T07:12:15.482Z,51.41
2019-01-25T07:13:19.737Z,51.38
2019-01-25T07:14:23.784Z,51.45
2019-01-25T07:15:27.868Z,51.56
2019-01-25T07:16:31.912Z,51.61
2019-01-25T07:17:36.211Z,51.63
2019-01-25T07:18:40.229Z,51.58
2019-01-25T07:19:44.177Z,51.58
2019-01-25T07:20:48.185Z,51.66
2019-01-25T07:21:52.175Z,51.70
2019-01-25T07:22:56.419Z,51.75
2019-01-25T07:24:00.474Z,51.74
2019-01-25T07:25:05.755Z,51.69
2019-01-25T07:26:09.780Z,51.67
2019-01-25T07:27:14.035Z,51.60
2019-01-25T07:28:18.058Z,51.44
2019-01-25T07:29:22.054Z,51.36
2019-01-25T07:30:26.104Z,51.27
2019-01-25T07:31:30.264Z,51.26
2019-01-25T07:32:34.335Z,51.27
2019-01-25T07:33:38.413Z,51.23
2019-01-25T07:34:42.375Z,51.21
2019-01-25T07:35:46.366Z,51.21
2019-01-25T07:36:52.024Z,51.20
2019-01-25T07:37:56.138Z,51.19
2019-01-25T07:39:00.469Z,51.26
2019-01-25T07:40:05.026Z,51.29
2019-01-25T07:41:09.058Z,51.22
2019-01-25T07:42:13.393Z,51.13
2019-01-25T07:43:17.802Z,51.03
2019-01-25T07:44:21.837Z,50.94
2019-01-25T07:45:25.853Z,50.84
2019-01-25T07:46:29.860Z,50.78
2019-01-25T07:47:33.877Z,50.67
2019-01-25T07:48:38.033Z,50.76
2019-01-25T07:49:42.019Z,50.84
2019-01-25T07:50:46.465Z,50.89
2019-01-25T07:51:50.465Z,51.05
2019-01-25T07:52:54.461Z,51.15
2019-01-25T07:53:58.505Z,51.18
2019-01-25T07:55:02.727Z,51.23
2019-01-25T07:56:06.944Z,51.26
2019-01-25T07:57:10.954Z,51.25
2019-01-25T07:58:15.281Z,51.13
2019-01-25T07:59:19.208Z,51.04
2019-01-25T08:00:23.265Z,51.00
2019-01-25T08:01:27.290Z,50.89
2019-01-25T08:02:31.277Z,50.67
2019-01-25T08:03:35.565Z,50.53
2019-01-25T08:04:39.545Z,50.47
2019-01-25T08:05:43.555Z,50.38
2019-01-25T08:06:47.581Z,50.32
2019-01-25T08:07:51.799Z,50.23
2019-01-25T08:08:55.801Z,50.20
2019-01-25T08:10:00.584Z,50.22
2019-01-25T08:11:04.795Z,50.17
2019-01-25T08:12:08.923Z,50.11
2019-01-25T08:13:12.930Z,50.01
2019-01-25T08:14:17.025Z,49.94
2019-01-25T08:15:22.753Z,49.82
2019-01-25T08:16:27.053Z,49.61
2019-01-25T08:17:31.349Z,49.46
2019-01-25T08:18:35.368Z,49.39
2019-01-25T08:19:39.789Z,49.39
2019-01-25T08:20:44.203Z,49.36
2019-01-25T08:21:48.583Z,49.34
2019-01-25T08:22:52.614Z,49.27
2019-01-25T08:23:56.854Z,49.13
2019-01-25T08:25:01.156Z,49.00
2019-01-25T08:26:05.203Z,49.00
2019-01-25T08:27:09.233Z,49.00
2019-01-25T08:28:13.268Z,49.07
2019-01-25T08:29:17.295Z,49.06
2019-01-25T08:30:21.405Z,48.99
2019-01-25T08:31:25.374Z,48.93
2019-01-25T08:32:29.378Z,48.88
2019-01-25T08:33:33.368Z,48.92
2019-01-25T08:34:37.389Z,48.94
2019-01-25T08:35:41.404Z,48.83
2019-01-25T08:36:45.570Z,48.65
2019-01-25T08:37:49.573Z,48.53
2019-01-25T08:38:53.995Z,48.46
2019-01-25T08:39:57.997Z,48.45
2019-01-25T08:41:02.033Z,48.49
2019-01-25T08:42:06.024Z,48.57
2019-01-25T08:43:10.205Z,48.71
2019-01-25T08:44:14.454Z,48.78
2019-01-25T08:45:18.794Z,48.82
2019-01-25T08:46:22.799Z,48.83
2019-01-25T08:47:26.830Z,48.83
2019-01-25T08:48:31.061Z,48.86
2019-01-25T08:49:35.297Z,48.84
2019-01-25T08:50:39.334Z,48.81
2019-01-25T08:51:43.307Z,48.75
2019-01-25T08:52:47.334Z,48.62
2019-01-25T08:53:51.373Z,48.53
2019-01-25T08:54:55.677Z,48.44
2019-01-25T08:55:59.658Z,48.37
2019-01-25T08:57:03.668Z,48.36
2019-01-25T08:58:07.682Z,48.34
2019-01-25T08:59:11.981Z,48.31
2019-01-25T09:00:20.634Z,48.19
2019-01-25T09:01:25.026Z,48.13
2019-01-25T09:02:29.038Z,48.20
2019-01-25T09:03:33.046Z,48.20
2019-01-25T09:04:37.334Z,48.16
2019-01-25T09:05:41.354Z,48.11
2019-01-25T09:06:45.378Z,48.04
2019-01-25T09:07:49.514Z,48.01
2019-01-25T09:08:53.747Z,48.01
2019-01-25T09:09:57.782Z,47.89
2019-01-25T09:11:01.775Z,47.81
2019-01-25T09:12:05.828Z,47.58
2019-01-25T09:13:09.841Z,47.35
2019-01-25T09:14:13.856Z,47.24
2019-01-25T09:15:20.648Z,47.16
2019-01-25T09:16:24.992Z,47.10
2019-01-25T09:17:29.647Z,46.99
2019-01-25T09:18:33.956Z,46.89
2019-01-25T09:19:37.903Z,46.85
2019-01-25T09:20:41.979Z,46.84
2019-01-25T09:21:46.023Z,46.83
2019-01-25T09:22:50.034Z,46.78
2019-01-25T09:23:54.046Z,46.77
2019-01-25T09:24:58.064Z,46.79
2019-01-25T09:26:02.101Z,46.78
2019-01-25T09:27:06.307Z,46.66
2019-01-25T09:28:10.571Z,46.50
2019-01-25T09:29:14.984Z,46.38
2019-01-25T09:30:21.087Z,46.45
2019-01-25T09:31:25.099Z,46.44
2019-01-25T09:32:29.124Z,46.36
2019-01-25T09:33:33.491Z,46.32
2019-01-25T09:34:37.507Z,46.43
2019-01-25T09:35:41.859Z,46.52
2019-01-25T09:36:45.875Z,46.55
2019-01-25T09:37:51.700Z,46.58
2019-01-25T09:38:55.713Z,46.63
2019-01-25T09:39:59.662Z,46.55
2019-01-25T09:41:04.131Z,46.42
2019-01-25T09:42:08.138Z,46.43
2019-01-25T09:43:12.167Z,46.35
2019-01-25T09:44:16.176Z,46.47
2019-01-25T09:45:20.755Z,46.48
2019-01-25T09:46:24.767Z,46.46
2019-01-25T09:47:28.730Z,46.45
2019-01-25T09:48:32.762Z,46.51
2019-01-25T09:49:36.818Z,46.44
2019-01-25T09:50:40.883Z,46.37
2019-01-25T09:51:45.148Z,46.37
2019-01-25T09:52:49.197Z,46.40
2019-01-25T09:53:53.206Z,46.40
2019-01-25T09:54:57.562Z,46.48
2019-01-25T09:56:01.580Z,46.55
2019-01-25T09:57:06.195Z,46.64
2019-01-25T09:58:12.460Z,46.70
2019-01-25T09:59:16.472Z,46.81
2019-01-25T10:00:32.384Z,46.78
2019-01-25T10:01:36.383Z,46.79
2019-01-25T10:02:40.243Z,46.78
2019-01-25T10:03:44.501Z,46.75
2019-01-25T10:04:48.509Z,46.55
2019-01-25T10:05:52.521Z,46.47
2019-01-25T10:06:56.531Z,46.52
2019-01-25T10:08:00.536Z,46.59
2019-01-25T10:09:07.671Z,46.72
2019-01-25T10:10:12.144Z,46.84
2019-01-25T10:11:16.148Z,46.92
2019-01-25T10:12:20.074Z,46.93
2019-01-25T10:13:24.020Z,46.84
2019-01-25T10:14:28.261Z,46.78
2019-01-25T10:15:32.276Z,46.75
2019-01-25T10:16:36.401Z,46.73
2019-01-25T10:17:40.401Z,46.66
2019-01-25T10:18:44.590Z,46.71
2019-01-25T10:19:48.596Z,46.80
2019-01-25T10:20:52.694Z,46.83
2019-01-25T10:21:56.626Z,46.80
2019-01-25T10:23:00.630Z,46.82
2019-01-25T10:24:06.423Z,46.83
2019-01-25T10:25:10.690Z,46.81
2019-01-25T10:26:14.630Z,46.73
2019-01-25T10:27:18.558Z,46.61
2019-01-25T10:28:22.583Z,46.53
2019-01-25T10:29:26.614Z,46.47
2019-01-25T10:30:30.626Z,46.42
2019-01-25T10:31:34.646Z,46.44
2019-01-25T10:32:38.653Z,46.53
2019-01-25T10:33:42.685Z,46.54
2019-01-25T10:34:46.995Z,46.43
2019-01-25T10:35:51.431Z,46.29
2019-01-25T10:36:55.511Z,45.95
2019-01-25T10:37:59.519Z,46.10
2019-01-25T10:39:05.353Z,46.29
2019-01-25T10:40:12.690Z,46.57
2019-01-25T10:41:16.701Z,46.74
2019-01-25T10:42:20.765Z,46.85
2019-01-25T10:43:24.812Z,46.91
2019-01-25T10:44:28.844Z,46.98
2019-01-25T10:45:34.911Z,47.03
2019-01-25T10:46:38.940Z,46.92
2019-01-25T10:47:42.939Z,46.81
2019-01-25T10:48:46.987Z,46.69
2019-01-25T10:49:50.995Z,46.74
2019-01-25T10:50:55.013Z,46.76
2019-01-25T10:51:59.024Z,46.58
2019-01-25T10:53:03.034Z,46.46
2019-01-25T10:54:08.541Z,46.45
2019-01-25T10:55:13.172Z,46.49
2019-01-25T10:56:17.116Z,46.44
2019-01-25T10:57:21.140Z,46.39
2019-01-25T10:58:25.156Z,46.30
2019-01-25T10:59:29.190Z,46.17
2019-01-25T11:00:33.779Z,46.21
2019-01-25T11:01:37.811Z,46.21
2019-01-25T11:02:41.837Z,46.25
2019-01-25T11:03:46.755Z,46.34
2019-01-25T11:04:50.799Z,46.32
2019-01-25T11:05:54.816Z,46.29
2019-01-25T11:06:58.782Z,46.27
2019-01-25T11:08:02.807Z,46.30
2019-01-25T11:09:09.175Z,46.37
2019-01-25T11:10:13.398Z,46.36
2019-01-25T11:11:17.407Z,46.08
2019-01-25T11:12:21.424Z,46.02
2019-01-25T11:13:25.687Z,46.18
2019-01-25T11:14:29.698Z,46.24
2019-01-25T11:15:34.190Z,46.34
2019-01-25T11:16:38.539Z,46.23
2019-01-25T11:17:42.559Z,45.98
2019-01-25T11:18:47.130Z,45.88
2019-01-25T11:19:51.302Z,45.90
2019-01-25T11:20:55.313Z,45.76
2019-01-25T11:21:59.325Z,45.60
2019-01-25T11:23:03.268Z,45.41
2019-01-25T11:24:08.001Z,45.25
2019-01-25T11:25:15.389Z,45.43
2019-01-25T11:26:19.396Z,45.60
2019-01-25T11:27:23.416Z,45.76
2019-01-25T11:28:27.424Z,45.88
2019-01-25T11:29:31.676Z,45.86
2019-01-25T11:30:36.145Z,45.64
2019-01-25T11:31:40.003Z,45.49
2019-01-25T11:32:44.016Z,45.43
2019-01-25T11:33:47.875Z,45.54
2019-01-25T11:34:51.961Z,45.56
2019-01-25T11:35:55.979Z,45.50
2019-01-25T11:37:00.232Z,45.21
2019-01-25T11:38:04.244Z,44.97
2019-01-25T11:39:10.170Z,45.08
2019-01-25T11:40:25.687Z,45.15
2019-01-25T11:41:29.704Z,45.36
2019-01-25T11:42:33.716Z,45.59
2019-01-25T11:43:38.042Z,45.71
2019-01-25T11:44:42.103Z,45.75
2019-01-25T11:45:46.076Z,45.76
2019-01-25T11:46:50.084Z,45.72
2019-01-25T11:47:54.530Z,45.63
2019-01-25T11:48:58.548Z,45.56
2019-01-25T11:50:02.557Z,45.47
2019-01-25T11:51:06.831Z,45.33
2019-01-25T11:52:10.842Z,45.24
2019-01-25T11:53:15.097Z,45.19
2019-01-25T11:54:19.112Z,45.15
2019-01-25T11:55:23.361Z,44.95
2019-01-25T11:56:27.303Z,44.88
2019-01-25T11:57:31.473Z,45.04
2019-01-25T11:58:35.485Z,45.08
2019-01-25T11:59:39.792Z,45.13
2019-01-25T12:00:45.797Z,45.06
2019-01-25T12:01:49.929Z,44.78
2019-01-25T12:02:54.291Z,44.87
2019-01-25T12:03:58.321Z,45.03
2019-01-25T12:05:02.582Z,45.10
2019-01-25T12:06:07.051Z,45.23
2019-01-25T12:07:11.438Z,45.19
2019-01-25T12:08:16.240Z,45.02
2019-01-25T12:09:20.353Z,45.12
2019-01-25T12:10:26.524Z,45.21
2019-01-25T12:11:30.845Z,45.23
2019-01-25T12:12:34.711Z,45.31
2019-01-25T12:13:38.962Z,45.34
2019-01-25T12:14:43.160Z,45.38
2019-01-25T12:15:47.223Z,45.40
2019-01-25T12:16:51.304Z,45.29
2019-01-25T12:17:55.691Z,45.23
2019-01-25T12:18:59.781Z,45.24
2019-01-25T12:20:05.161Z,45.45
2019-01-25T12:21:09.589Z,45.70
2019-01-25T12:22:13.627Z,45.52
2019-01-25T12:23:18.025Z,45.29
2019-01-25T12:24:22.039Z,45.42
2019-01-25T12:25:26.136Z,45.52
2019-01-25T12:26:30.507Z,45.57
2019-01-25T12:27:34.907Z,45.36
2019-01-25T12:28:38.846Z,45.37
2019-01-25T12:29:42.891Z,45.53
2019-01-25T12:30:46.911Z,45.61
2019-01-25T12:31:50.949Z,45.70
2019-01-25T12:32:55.017Z,45.80
2019-01-25T12:33:59.037Z,45.96
2019-01-25T12:35:07.218Z,46.17
2019-01-25T12:36:09.066Z,46.42
2019-01-25T12:37:12.946Z,46.46
2019-01-25T12:38:16.998Z,46.24
2019-01-25T12:39:21.028Z,46.28
2019-01-25T12:40:25.045Z,46.42
2019-01-25T12:41:29.077Z,46.37
2019-01-25T12:42:33.106Z,46.15
2019-01-25T12:43:37.152Z,46.30
2019-01-25T12:44:41.220Z,46.43
2019-01-25T12:45:50.094Z,46.48
2019-01-25T12:46:51.326Z,46.57
2019-01-25T12:47:55.616Z,46.66
2019-01-25T12:48:59.544Z,46.75
2019-01-25T12:50:03.795Z,46.77
2019-01-25T12:51:26.917Z,46.70
2019-01-25T12:52:31.644Z,46.63
2019-01-25T12:53:35.660Z,46.48
2019-01-25T12:54:39.961Z,46.29
2019-01-25T12:55:44.004Z,46.29
2019-01-25T12:56:48.313Z,46.29
2019-01-25T12:57:53.182Z,46.20
2019-01-25T12:58:57.597Z,46.16
2019-01-25T13:00:02.002Z,46.24
2019-01-25T13:01:06.824Z,46.38
2019-01-25T13:02:11.451Z,46.48
2019-01-25T13:03:15.481Z,46.51
2019-01-25T13:04:19.797Z,46.52
2019-01-25T13:05:24.282Z,46.51
2019-01-25T13:06:28.532Z,46.51
2019-01-25T13:07:32.557Z,46.49
2019-01-25T13:08:36.770Z,46.40
2019-01-25T13:09:40.787Z,46.29
2019-01-25T13:10:44.803Z,46.33
2019-01-25T13:11:49.116Z,46.44
2019-01-25T13:12:53.430Z,46.51
2019-01-25T13:13:57.672Z,46.31
2019-01-25T13:15:04.119Z,46.23
2019-01-25T13:16:09.197Z,46.47
2019-01-25T13:17:13.441Z,46.56
2019-01-25T13:18:18.615Z,46.62
2019-01-25T13:19:22.966Z,46.68
2019-01-25T13:20:27.809Z,46.84
2019-01-25T13:21:31.757Z,46.99
2019-01-25T13:22:36.535Z,47.17
2019-01-25T13:23:42.323Z,47.32
2019-01-25T13:24:47.153Z,47.43
2019-01-25T13:25:52.301Z,47.57
2019-01-25T13:26:56.702Z,47.63
2019-01-25T13:28:02.361Z,47.66
2019-01-25T13:29:06.392Z,47.63
2019-01-25T13:30:14.545Z,47.48
2019-01-25T13:31:19.072Z,47.50
2019-01-25T13:32:25.091Z,47.48
2019-01-25T13:33:29.790Z,47.50
2019-01-25T13:34:34.674Z,47.46
2019-01-25T13:35:39.952Z,47.48
2019-01-25T13:36:44.222Z,47.53
2019-01-25T13:37:49.345Z,47.54
2019-01-25T13:38:53.430Z,47.55
2019-01-25T13:39:57.309Z,47.58
2019-01-25T13:41:01.652Z,47.57
2019-01-25T13:42:06.678Z,47.48
2019-01-25T13:43:10.699Z,47.53
2019-01-25T13:44:15.515Z,47.63
2019-01-25T13:45:19.946Z,47.74
2019-01-25T13:46:24.521Z,47.82
2019-01-25T13:47:30.884Z,47.94
2019-01-25T13:48:34.976Z,48.06
2019-01-25T13:49:39.523Z,48.09
2019-01-25T13:50:44.250Z,48.12